createdAt,value
2023-12-08T00:02:01.399Z,30.34
2023-12-08T00:05:04.482Z,28.56
2023-12-08T00:08:06.278Z,27.77
2023-12-08T00:11:08.927Z,27.46
2023-12-08T00:14:10.774Z,27.73
2023-12-08T00:17:12.692Z,27.53
2023-12-08T00:20:14.693Z,28.08
2023-12-08T00:23:16.826Z,27.39
2023-12-08T00:26:18.715Z,27.05
2023-12-08T00:29:20.652Z,27.13
2023-12-08T00:32:22.450Z,27.34
2023-12-08T00:35:24.270Z,27.38
2023-12-08T00:38:26.029Z,27.57
2023-12-08T00:41:28.897Z,26.65
2023-12-08T00:44:30.799Z,26.07
2023-12-08T00:47:32.750Z,25.99
2023-12-08T00:50:34.670Z,25.77
2023-12-08T00:53:36.472Z,25.85
2023-12-08T00:56:38.270Z,26.14
2023-12-08T00:59:40.079Z,26.25
2023-12-08T01:02:41.933Z,24.70
2023-12-08T01:05:43.785Z,25.24
2023-12-08T01:08:45.613Z,25.76
2023-12-08T01:11:47.461Z,27.44
2023-12-08T01:14:49.363Z,27.35
2023-12-08T01:17:51.276Z,27.72
2023-12-08T01:20:55.226Z,28.56
2023-12-08T01:23:57.000Z,29.83
2023-12-08T01:26:58.833Z,28.31
2023-12-08T01:30:00.854Z,27.92
2023-12-08T01:33:04.674Z,29.08
2023-12-08T01:36:38.586Z,28.37
2023-12-08T01:39:28.713Z,28.53
2023-12-08T01:42:30.576Z,28.24
2023-12-08T01:45:32.335Z,29.05
2023-12-08T01:48:34.283Z,29.68
2023-12-08T01:51:36.230Z,29.88
2023-12-08T01:54:38.121Z,30.71
2023-12-08T01:57:40.023Z,31.25
2023-12-08T02:00:46.882Z,32.02
2023-12-08T02:03:52.160Z,32.96
2023-12-08T02:06:55.984Z,32.51
2023-12-08T02:09:57.800Z,32.61
2023-12-08T02:13:00.719Z,32.74
2023-12-08T02:16:25.513Z,33.82
2023-12-08T02:19:28.438Z,33.63
2023-12-08T02:22:30.307Z,32.79
2023-12-08T02:25:32.127Z,33.21
2023-12-08T02:28:33.918Z,34.03
2023-12-08T02:31:44.977Z,34.13
2023-12-08T02:34:50.058Z,33.97
2023-12-08T02:37:56.169Z,34.87
2023-12-08T02:40:58.457Z,35.15
2023-12-08T02:44:00.304Z,34.41
2023-12-08T02:47:02.171Z,33.83
2023-12-08T02:50:04.620Z,33.87
2023-12-08T02:53:06.402Z,34.37
2023-12-08T02:56:08.584Z,34.07
2023-12-08T02:59:10.336Z,32.75
2023-12-08T03:02:12.178Z,33.50
2023-12-08T03:05:14.071Z,32.96
2023-12-08T03:08:15.886Z,33.25
2023-12-08T03:11:17.689Z,33.23
2023-12-08T03:14:19.424Z,32.87
2023-12-08T03:17:21.219Z,32.95
2023-12-08T03:20:23.017Z,32.77
2023-12-08T03:23:24.826Z,31.74
2023-12-08T03:26:26.649Z,31.56
2023-12-08T03:29:28.380Z,31.16
2023-12-08T03:32:30.353Z,31.02
2023-12-08T03:35:32.143Z,30.90
2023-12-08T03:38:33.979Z,29.98
2023-12-08T03:41:35.841Z,29.54
2023-12-08T03:44:37.706Z,30.21
2023-12-08T03:47:39.784Z,29.55
2023-12-08T03:50:41.742Z,29.64
2023-12-08T03:53:43.604Z,28.81
2023-12-08T03:56:45.469Z,28.41
2023-12-08T03:59:47.365Z,28.79
2023-12-08T04:02:49.714Z,28.60
2023-12-08T04:05:52.100Z,28.11
2023-12-08T04:08:54.050Z,27.77
2023-12-08T04:11:55.953Z,27.62
2023-12-08T04:14:57.776Z,26.80
2023-12-08T04:18:00.218Z,27.41
2023-12-08T04:21:02.206Z,26.64
2023-12-08T04:24:04.167Z,26.73
2023-12-08T04:27:06.286Z,26.71
2023-12-08T04:30:08.700Z,26.99
2023-12-08T04:33:10.848Z,26.93
2023-12-08T04:36:12.855Z,26.08
2023-12-08T04:39:14.771Z,26.46
2023-12-08T04:42:17.052Z,27.29
2023-12-08T04:45:18.913Z,27.67
2023-12-08T04:48:20.874Z,27.11
2023-12-08T04:51:22.724Z,27.11
2023-12-08T04:54:24.654Z,27.11
2023-12-08T04:57:26.613Z,28.07
2023-12-08T05:00:28.887Z,26.76
2023-12-08T05:03:30.698Z,27.56
2023-12-08T05:06:32.837Z,28.19
2023-12-08T05:09:34.743Z,27.92
2023-12-08T05:12:36.543Z,28.47
2023-12-08T05:15:38.410Z,28.84
2023-12-08T05:18:40.739Z,28.80
2023-12-08T05:21:42.676Z,28.03
2023-12-08T05:24:44.426Z,28.48
2023-12-08T05:27:46.725Z,27.27
2023-12-08T05:30:48.721Z,26.53
2023-12-08T05:33:50.618Z,27.42
2023-12-08T05:36:52.454Z,28.10
2023-12-08T05:39:54.520Z,27.72
2023-12-08T05:42:56.272Z,27.73
2023-12-08T05:45:58.107Z,30.07
2023-12-08T05:49:00.047Z,30.41
2023-12-08T05:52:01.930Z,29.67
2023-12-08T05:55:04.179Z,29.07
2023-12-08T05:58:06.016Z,29.13
2023-12-08T06:01:07.880Z,29.23
2023-12-08T06:04:09.642Z,29.60
2023-12-08T06:07:12.361Z,30.78
2023-12-08T06:10:14.372Z,30.12
2023-12-08T06:13:16.146Z,30.13
2023-12-08T06:16:18.833Z,30.41
2023-12-08T06:19:20.926Z,30.28
2023-12-08T06:22:22.810Z,30.76
2023-12-08T06:25:24.704Z,30.94
2023-12-08T06:28:26.435Z,32.13
2023-12-08T06:31:28.230Z,29.70
2023-12-08T06:34:30.311Z,31.46
2023-12-08T06:37:32.202Z,31.75
2023-12-08T06:40:34.057Z,31.28
2023-12-08T06:43:35.985Z,28.99
2023-12-08T06:46:37.796Z,28.54
2023-12-08T06:49:39.762Z,28.73
2023-12-08T06:52:41.683Z,28.16
2023-12-08T06:55:44.557Z,28.85
2023-12-08T06:58:46.294Z,28.27
2023-12-08T07:01:48.092Z,29.08
2023-12-08T07:04:50.021Z,29.13
2023-12-08T07:07:52.100Z,29.04
2023-12-08T07:10:54.046Z,29.55
2023-12-08T07:13:55.844Z,28.86
2023-12-08T07:16:57.668Z,29.89
2023-12-08T07:19:59.536Z,30.34
2023-12-08T07:23:02.622Z,29.30
2023-12-08T07:26:06.012Z,30.25
2023-12-08T07:29:07.810Z,30.37
2023-12-08T07:32:09.712Z,29.79
2023-12-08T07:35:11.497Z,30.51
2023-12-08T07:38:13.368Z,31.90
2023-12-08T07:41:15.252Z,33.33
2023-12-08T07:44:17.017Z,32.43
2023-12-08T07:47:18.878Z,33.09
2023-12-08T07:50:20.701Z,32.48
2023-12-08T07:53:23.012Z,32.77
2023-12-08T07:56:24.848Z,32.59
2023-12-08T07:59:27.108Z,33.00
2023-12-08T08:02:29.129Z,32.29
2023-12-08T08:05:31.088Z,31.92
2023-12-08T08:08:34.423Z,32.95
2023-12-08T08:11:36.417Z,32.51
2023-12-08T08:14:39.924Z,32.51
2023-12-08T08:17:41.959Z,34.27
2023-12-08T08:20:43.817Z,35.81
2023-12-08T08:23:45.675Z,35.92
2023-12-08T08:26:48.218Z,36.24
2023-12-08T08:29:50.103Z,35.53
2023-12-08T08:32:52.029Z,36.44
2023-12-08T08:35:53.874Z,37.30
2023-12-08T08:38:55.717Z,37.65
2023-12-08T08:41:57.705Z,38.48
2023-12-08T08:44:59.506Z,39.75
2023-12-08T08:48:01.597Z,41.05
2023-12-08T08:51:03.752Z,40.18
2023-12-08T08:54:06.659Z,39.68
2023-12-08T08:57:08.497Z,40.79
2023-12-08T09:00:13.563Z,39.06
2023-12-08T09:03:15.609Z,36.09
2023-12-08T09:06:17.590Z,36.24
2023-12-08T09:09:19.508Z,38.51
2023-12-08T09:12:21.319Z,38.34
2023-12-08T09:15:23.386Z,38.19
2023-12-08T09:18:25.348Z,39.19
2023-12-08T09:21:27.197Z,39.19
2023-12-08T09:24:29.026Z,39.52
2023-12-08T09:27:30.854Z,39.94
2023-12-08T09:30:32.957Z,39.47
2023-12-08T09:33:34.920Z,39.41
2023-12-08T09:36:37.273Z,41.43
2023-12-08T09:39:39.464Z,43.97
2023-12-08T09:42:46.828Z,44.09
2023-12-08T09:45:49.286Z,44.00
2023-12-08T09:48:57.189Z,43.74
2023-12-08T09:52:00.760Z,42.86
2023-12-08T09:55:04.556Z,42.60
2023-12-08T09:58:08.487Z,42.82
2023-12-08T10:01:14.604Z,40.35
2023-12-08T10:04:16.998Z,37.49
2023-12-08T10:07:21.438Z,33.61
2023-12-08T10:10:25.431Z,32.54
2023-12-08T10:13:27.342Z,32.90
2023-12-08T10:16:29.145Z,32.60
2023-12-08T10:19:31.054Z,32.65
2023-12-08T10:22:43.455Z,32.92
2023-12-08T10:25:48.230Z,32.85
2023-12-08T10:28:55.304Z,33.16
2023-12-08T10:31:58.996Z,34.23
2023-12-08T10:35:00.910Z,34.99
2023-12-08T10:38:03.398Z,34.58
2023-12-08T10:41:06.212Z,35.63
2023-12-08T10:44:09.852Z,36.26
2023-12-08T10:47:11.645Z,36.14
2023-12-08T10:50:14.155Z,36.78
2023-12-08T10:53:17.947Z,36.11
2023-12-08T10:56:22.730Z,36.99
2023-12-08T10:59:32.632Z,37.50
2023-12-08T11:02:36.592Z,37.17
2023-12-08T11:05:49.253Z,37.36
2023-12-08T11:08:57.380Z,37.50
2023-12-08T11:12:04.585Z,36.23
2023-12-08T11:15:17.475Z,35.89
2023-12-08T11:18:28.286Z,36.32
2023-12-08T11:21:30.744Z,35.34
2023-12-08T11:24:32.859Z,35.51
2023-12-08T11:27:45.266Z,36.51
2023-12-08T11:30:58.984Z,36.43
2023-12-08T11:34:14.918Z,36.01
2023-12-08T11:37:17.776Z,36.85
2023-12-08T11:40:19.717Z,36.48
2023-12-08T11:43:21.771Z,36.61
2023-12-08T11:46:23.537Z,37.39
2023-12-08T11:49:26.167Z,36.47
2023-12-08T11:52:30.355Z,36.69
2023-12-08T11:55:35.903Z,36.50
2023-12-08T11:58:40.642Z,36.04
2023-12-08T12:01:43.932Z,35.72
2023-12-08T12:04:45.772Z,35.39
2023-12-08T12:07:52.350Z,35.28
2023-12-08T12:11:02.262Z,37.16
2023-12-08T12:14:08.683Z,36.50
2023-12-08T12:17:13.958Z,37.50
2023-12-08T12:20:15.976Z,39.33
2023-12-08T12:23:20.390Z,40.72
2023-12-08T12:26:22.444Z,43.18
2023-12-08T12:29:24.907Z,44.32
2023-12-08T12:32:27.515Z,43.96
2023-12-08T12:35:29.348Z,43.53
2023-12-08T12:38:31.204Z,40.98
2023-12-08T12:41:33.078Z,41.04
2023-12-08T12:44:46.963Z,41.24
2023-12-08T12:47:49.018Z,41.83
2023-12-08T12:50:55.819Z,41.24
2023-12-08T12:53:57.698Z,41.01
2023-12-08T12:57:00.905Z,41.44
2023-12-08T13:00:03.540Z,40.93
2023-12-08T13:03:13.721Z,41.30
2023-12-08T13:06:30.302Z,41.73
2023-12-08T13:09:33.652Z,41.00
2023-12-08T13:12:36.163Z,41.07
2023-12-08T13:15:37.949Z,41.40
2023-12-08T13:18:49.960Z,42.40
2023-12-08T13:21:51.832Z,41.70
2023-12-08T13:24:54.056Z,42.20
2023-12-08T13:27:55.883Z,41.51
2023-12-08T13:30:57.662Z,43.35
2023-12-08T13:33:59.792Z,43.28
2023-12-08T13:37:03.367Z,42.72
2023-12-08T13:40:06.027Z,42.31
2023-12-08T13:43:07.857Z,42.13
2023-12-08T13:46:09.751Z,41.15
2023-12-08T13:49:11.696Z,40.84
2023-12-08T13:52:13.957Z,41.19
2023-12-08T13:55:15.785Z,41.49
2023-12-08T13:58:17.638Z,41.00
2023-12-08T14:01:20.574Z,41.93
2023-12-08T14:04:22.609Z,41.86
2023-12-08T14:07:26.736Z,41.55
2023-12-08T14:10:28.741Z,40.98
2023-12-08T14:13:30.566Z,41.25
2023-12-08T14:16:32.444Z,41.27
2023-12-08T14:19:34.410Z,40.56
2023-12-08T14:22:36.350Z,40.11
2023-12-08T14:25:38.188Z,38.90
2023-12-08T14:28:39.964Z,39.90
2023-12-08T14:31:41.743Z,39.16
2023-12-08T14:34:43.755Z,40.14
2023-12-08T14:37:46.221Z,40.26
2023-12-08T14:40:50.036Z,41.39
2023-12-08T14:43:52.084Z,41.71
2023-12-08T14:46:53.893Z,42.42
2023-12-08T14:49:55.793Z,42.57
2023-12-08T14:52:57.909Z,41.50
2023-12-08T14:56:00.525Z,41.84
2023-12-08T14:59:02.459Z,42.06
2023-12-08T15:02:04.770Z,42.00
2023-12-08T15:05:07.400Z,42.67
2023-12-08T15:08:09.185Z,41.51
2023-12-08T15:11:11.342Z,41.13
2023-12-08T15:14:13.157Z,41.43
2023-12-08T15:17:14.925Z,41.60
2023-12-08T15:20:16.693Z,40.99
2023-12-08T15:23:19.501Z,40.42
2023-12-08T15:26:21.814Z,40.41
2023-12-08T15:29:23.606Z,40.40
2023-12-08T15:32:25.395Z,40.47
2023-12-08T15:35:27.191Z,40.45
2023-12-08T15:38:29.019Z,39.84
2023-12-08T15:41:30.856Z,39.16
2023-12-08T15:44:32.662Z,39.06
2023-12-08T15:47:34.691Z,39.29
2023-12-08T15:50:38.839Z,38.39
2023-12-08T15:53:43.786Z,36.61
2023-12-08T15:56:45.804Z,36.88
2023-12-08T15:59:47.696Z,35.66
2023-12-08T16:02:49.549Z,35.99
2023-12-08T16:05:51.468Z,35.86
2023-12-08T16:08:54.165Z,35.24
2023-12-08T16:11:56.153Z,34.11
2023-12-08T16:14:58.032Z,32.81
2023-12-08T16:18:01.171Z,31.60
2023-12-08T16:21:03.388Z,30.36
2023-12-08T16:24:05.641Z,29.05
2023-12-08T16:27:09.619Z,28.86
2023-12-08T16:30:12.319Z,28.70
2023-12-08T16:33:14.314Z,28.80
2023-12-08T16:36:16.260Z,27.57
2023-12-08T16:39:19.469Z,27.46
2023-12-08T16:42:21.726Z,27.00
2023-12-08T16:45:23.653Z,25.89
2023-12-08T16:48:26.176Z,24.98
2023-12-08T16:51:28.115Z,25.39
2023-12-08T16:54:30.156Z,25.59
2023-12-08T16:57:32.128Z,24.99
2023-12-08T17:00:33.984Z,24.40
2023-12-08T17:03:35.914Z,25.03
2023-12-08T17:06:37.848Z,25.00
2023-12-08T17:09:39.759Z,25.26
2023-12-08T17:12:41.546Z,24.63
2023-12-08T17:15:43.639Z,24.06
2023-12-08T17:18:45.625Z,23.81
2023-12-08T17:21:48.245Z,23.56
2023-12-08T17:24:50.149Z,23.28
2023-12-08T17:27:51.985Z,21.70
2023-12-08T17:30:54.818Z,22.07
2023-12-08T17:34:04.753Z,20.98
2023-12-08T17:37:15.025Z,20.98
2023-12-08T17:40:16.865Z,21.13
2023-12-08T17:43:18.688Z,20.91
2023-12-08T17:46:20.633Z,20.85
2023-12-08T17:49:22.516Z,20.73
2023-12-08T17:52:25.078Z,20.75
2023-12-08T17:55:27.339Z,20.56
2023-12-08T17:58:29.084Z,21.05
2023-12-08T18:01:30.949Z,20.56
2023-12-08T18:04:32.733Z,21.05
2023-12-08T18:07:35.059Z,20.72
2023-12-08T18:10:36.881Z,20.74
2023-12-08T18:13:38.707Z,20.87
2023-12-08T18:16:48.265Z,20.42
2023-12-08T18:19:52.192Z,20.81
2023-12-08T18:22:54.013Z,20.97
2023-12-08T18:25:55.847Z,21.39
2023-12-08T18:29:08.232Z,21.93
2023-12-08T18:32:11.681Z,21.64
2023-12-08T18:35:13.446Z,21.92
2023-12-08T18:38:15.176Z,22.16
2023-12-08T18:41:17.880Z,22.09
2023-12-08T18:44:19.932Z,22.18
2023-12-08T18:47:22.055Z,22.54
2023-12-08T18:50:24.109Z,22.30
2023-12-08T18:53:26.153Z,21.92
2023-12-08T18:56:28.038Z,22.06
2023-12-08T18:59:30.117Z,23.50
2023-12-08T19:02:32.028Z,23.77
2023-12-08T19:05:36.765Z,23.58
2023-12-08T19:08:38.563Z,22.93
2023-12-08T19:11:40.512Z,23.14
2023-12-08T19:14:42.389Z,23.51
2023-12-08T19:17:44.321Z,22.54
2023-12-08T19:20:47.795Z,22.16
2023-12-08T19:23:49.646Z,22.91
2023-12-08T19:26:52.909Z,22.93
2023-12-08T19:29:54.744Z,23.12
2023-12-08T19:32:56.648Z,22.83
2023-12-08T19:35:58.658Z,22.53
2023-12-08T19:39:01.111Z,22.71
2023-12-08T19:42:03.713Z,23.63
2023-12-08T19:45:06.664Z,23.33
2023-12-08T19:48:08.651Z,23.40
2023-12-08T19:51:10.548Z,21.58
2023-12-08T19:54:12.512Z,23.00
2023-12-08T19:57:16.248Z,22.92
2023-12-08T20:00:18.634Z,24.00
2023-12-08T20:03:20.604Z,25.11
2023-12-08T20:06:23.083Z,23.55
2023-12-08T20:09:24.970Z,23.27
2023-12-08T20:12:28.151Z,22.85
2023-12-08T20:15:29.990Z,23.19
2023-12-08T20:18:31.908Z,24.61
2023-12-08T20:21:33.845Z,25.09
2023-12-08T20:24:38.032Z,23.84
2023-12-08T20:27:39.850Z,20.44
2023-12-08T20:30:41.834Z,21.87
2023-12-08T20:33:43.768Z,24.52
2023-12-08T20:36:50.102Z,25.71
2023-12-08T20:39:51.873Z,25.58
2023-12-08T20:42:53.643Z,26.89
2023-12-08T20:45:59.739Z,26.59
2023-12-08T20:49:01.658Z,26.90
2023-12-08T20:52:04.418Z,26.61
2023-12-08T20:55:06.288Z,27.69
2023-12-08T20:58:08.108Z,26.76
2023-12-08T21:01:10.977Z,27.51
2023-12-08T21:04:12.903Z,28.15
2023-12-08T21:07:14.913Z,28.38
2023-12-08T21:10:16.731Z,28.40
2023-12-08T21:13:19.322Z,28.66
2023-12-08T21:16:23.420Z,28.89
2023-12-08T21:19:26.114Z,30.17
2023-12-08T21:22:28.445Z,30.08
2023-12-08T21:25:31.421Z,29.81
2023-12-08T21:28:33.207Z,30.48
2023-12-08T21:31:34.995Z,30.62
2023-12-08T21:34:36.975Z,29.90
2023-12-08T21:37:39.704Z,29.94
2023-12-08T21:40:41.534Z,30.06
2023-12-08T21:43:43.304Z,30.22
2023-12-08T21:46:45.159Z,30.32
2023-12-08T21:49:46.983Z,31.48
2023-12-08T21:52:51.685Z,31.26
2023-12-08T21:55:54.977Z,30.54
2023-12-08T21:58:56.769Z,31.71
2023-12-08T22:01:58.601Z,31.59
2023-12-08T22:05:00.428Z,31.17
2023-12-08T22:08:02.282Z,31.41
2023-12-08T22:11:04.319Z,31.37
2023-12-08T22:14:06.150Z,31.74
2023-12-08T22:17:07.945Z,31.65
2023-12-08T22:20:10.086Z,32.26
2023-12-08T22:23:11.922Z,33.05
2023-12-08T22:26:13.948Z,32.02
2023-12-08T22:29:15.769Z,31.86
2023-12-08T22:32:17.661Z,31.75
2023-12-08T22:35:19.400Z,32.27
2023-12-08T22:38:21.631Z,31.53
2023-12-08T22:41:23.430Z,31.79
2023-12-08T22:44:25.375Z,31.45
2023-12-08T22:47:27.484Z,31.13
2023-12-08T22:50:38.700Z,30.87
2023-12-08T22:53:48.084Z,30.57
2023-12-08T22:56:50.101Z,31.26
2023-12-08T22:59:52.230Z,30.02
2023-12-08T23:02:55.097Z,29.94
2023-12-08T23:05:56.946Z,29.95
2023-12-08T23:08:58.797Z,29.44
2023-12-08T23:12:00.687Z,29.75
2023-12-08T23:15:04.449Z,29.44
2023-12-08T23:18:06.398Z,29.28
2023-12-08T23:21:08.277Z,29.62
2023-12-08T23:24:10.250Z,30.67
2023-12-08T23:27:12.601Z,30.78
2023-12-08T23:30:15.273Z,30.40
2023-12-08T23:33:17.240Z,30.46
2023-12-08T23:36:19.727Z,30.51
2023-12-08T23:39:21.533Z,29.98
2023-12-08T23:42:23.730Z,30.22
2023-12-08T23:45:25.726Z,30.46
2023-12-08T23:48:27.687Z,30.36
2023-12-08T23:51:29.618Z,30.81
2023-12-08T23:54:31.464Z,30.28
2023-12-08T23:57:33.353Z,30.15
